Pietro Novelli — IOTQ — position and weather

sailwx.info

Track history (hours):
 
Tides and Currents Weather Stations Pressure Air Temp Water Temp Dewpoint Dewpoint Depression Visibility Wind Speed Wind Dir Waves Ship Positions

Pietro Novelli

Last reported at 2016-Feb-06 22:32 UTC. Time now 2016-Feb-06 23:28 UTC.
Position N 38°13' E 015°15'.

Length 91 m; draft 3.7 m.

Type: Ship. MMSI: 247000300.

Date/timePositionNaut miles runAvg speedWind from/ knotsBaromVisibWave heightAir tempDewpointWater temp
2016-Feb-06 22:32N 38°13' E 015°15'0 0.0
2016-Feb-06 21:33N 38°13' E 015°15'0 0.0
2016-Feb-06 20:33N 38°13' E 015°15'0 0.0
2016-Feb-06 19:33N 38°13' E 015°15'1 1.2
2016-Feb-06 18:33N 38°14' E 015°16'21 8.9
2016-Feb-06 16:14N 38°28' E 014°57'0 0.0
2016-Feb-06 08:33N 38°28' E 014°58'4 3.7
2016-Feb-06 07:31N 38°25' E 014°60'1313.3
2016-Feb-06 06:32N 38°18' E 015°14'5 4.9
2016-Feb-06 05:33N 38°13' E 015°15'0 0.0
2016-Feb-06 04:33N 38°13' E 015°15'0 0.0
2016-Feb-06 03:33N 38°13' E 015°15'0 0.0
2016-Feb-06 02:32N 38°13' E 015°15'0 0.0
2016-Feb-06 01:33N 38°13' E 015°15'0 0.0
2016-Feb-06 00:33N 38°13' E 015°15'0 0.0
2016-Feb-05 23:33N 38°13' E 015°15'0 0.0
2016-Feb-05 22:33N 38°13' E 015°15'0 0.0
2016-Feb-05 21:33N 38°13' E 015°15'0 0.0
2016-Feb-05 20:33N 38°13' E 015°15'4 3.6
2016-Feb-05 19:33N 38°17' E 015°15'1313.1
2016-Feb-05 18:32N 38°24' E 015°01'5 4.9
2016-Feb-05 17:33N 38°28' E 014°57'11 5.3
2016-Feb-05 15:26N 38°38' E 015°05'5 4.9
2016-Feb-05 14:26N 38°42' E 015°07'16 3.2
2016-Feb-05 09:24N 38°28' E 014°57'3 2.6
2016-Feb-05 08:09N 38°25' E 014°58'711.7
2016-Feb-05 07:32N 38°22' E 015°06'1111.4
2016-Feb-05 06:33N 38°14' E 015°17'2 0.1
2016-Feb-04 13:24N 38°13' E 015°15'0 0.0
2016-Feb-04 12:12N 38°13' E 015°15'0 0.0
2016-Feb-04 11:30N 38°13' E 015°15'0 0.0
2016-Feb-04 10:30N 38°13' E 015°15'0 0.0
2016-Feb-04 09:18N 38°13' E 015°15'0 0.0
2016-Feb-04 08:30N 38°13' E 015°15'0 0.0
2016-Feb-04 07:30N 38°13' E 015°15'0 0.0
2016-Feb-04 06:30N 38°13' E 015°15'12 0.9
2016-Feb-03 17:32N 38°22' E 015°05'8 8.2
2016-Feb-03 16:33N 38°28' E 014°58'6 0.6
2016-Feb-03 07:24N 38°24' E 015°02'1213.9
2016-Feb-03 06:33N 38°17' E 015°14'5 0.4
2016-Feb-02 19:33N 38°13' E 015°15'0 0.4
2016-Feb-02 18:34N 38°13' E 015°15'1211.9
2016-Feb-02 17:33N 38°22' E 015°05'9 1.0
2016-Feb-02 08:33N 38°28' E 014°57'4 3.8
2016-Feb-02 07:31N 38°25' E 014°60'1313.9
2016-Feb-02 06:33N 38°17' E 015°14'4 4.3
2016-Feb-02 05:33N 38°13' E 015°15'0 0.0
2016-Feb-02 04:33N 38°13' E 015°15'0 0.0
2016-Feb-02 03:33N 38°13' E 015°14'0 0.0
2016-Feb-02 02:33N 38°13' E 015°15'0 0.0
2016-Feb-02 01:33N 38°13' E 015°15'0 0.0
2016-Feb-02 00:33N 38°13' E 015°15'0 0.0
2016-Feb-01 23:33N 38°13' E 015°15'0 0.0
2016-Feb-01 22:33N 38°13' E 015°15'0 0.0
2016-Feb-01 21:33N 38°13' E 015°15'0 0.0
2016-Feb-01 20:30N 38°13' E 015°15'0 0.0
2016-Feb-01 19:33N 38°13' E 015°15'0 0.2
2016-Feb-01 18:33N 38°13' E 015°15'1111.1
2016-Feb-01 17:33N 38°22' E 015°06'7 0.7
2016-Feb-01 07:33N 38°25' E 014°58'1414.0
2016-Feb-01 06:33N 38°18' E 015°14'5 4.8
2016-Feb-01 05:33N 38°13' E 015°15'0 0.0
2016-Feb-01 04:32N 38°13' E 015°15'0 0.0
2016-Feb-01 03:33N 38°13' E 015°15'0 0.0
2016-Feb-01 02:33N 38°13' E 015°14'0 0.0
2016-Feb-01 01:33N 38°13' E 015°15'0 0.0
2016-Feb-01 00:33N 38°13' E 015°15'0 0.0
2016-Jan-31 23:33N 38°13' E 015°15'0 0.0
2016-Jan-31 22:32N 38°13' E 015°15'0 0.0
2016-Jan-31 21:33N 38°13' E 015°15'0 0.0
2016-Jan-31 20:33N 38°13' E 015°15'0 0.0
2016-Jan-31 19:32N 38°13' E 015°15'0 0.0
2016-Jan-31 18:33N 38°13' E 015°15'0 0.0
2016-Jan-31 17:33N 38°13' E 015°15'0 0.0
2016-Jan-31 16:33N 38°13' E 015°15'0 0.0
2016-Jan-31 15:33N 38°13' E 015°15'0 0.0
2016-Jan-31 14:33N 38°13' E 015°15'0 0.0
2016-Jan-31 13:33N 38°13' E 015°15'0 0.0
2016-Jan-31 12:33N 38°13' E 015°15'0 0.0
2016-Jan-31 11:33N 38°13' E 015°15'0 0.0
2016-Jan-31 10:33N 38°13' E 015°15'0 0.0
2016-Jan-31 09:33N 38°13' E 015°15'0 0.0
2016-Jan-31 08:33N 38°13' E 015°15'0 0.0
2016-Jan-31 07:33N 38°13' E 015°15'0 0.0
2016-Jan-31 06:33N 38°13' E 015°15'0 0.0
2016-Jan-31 05:33N 38°13' E 015°15'0 0.0
2016-Jan-31 04:33N 38°13' E 015°15'0 0.0
2016-Jan-31 03:33N 38°13' E 015°15'0 0.0
2016-Jan-31 02:33N 38°13' E 015°15'0 0.0
2016-Jan-31 01:33N 38°13' E 015°15'0 0.0
2016-Jan-31 00:32N 38°13' E 015°15'0 0.0
2016-Jan-30 23:32N 38°13' E 015°15'0 0.0
2016-Jan-30 22:33N 38°13' E 015°15'0 0.0
2016-Jan-30 21:33N 38°13' E 015°15'0 0.0
2016-Jan-30 20:33N 38°13' E 015°15'0 0.0
2016-Jan-30 19:33N 38°13' E 015°15'0 0.1
2016-Jan-30 18:33N 38°13' E 015°15'1111.0
2016-Jan-30 17:34N 38°22' E 015°06'9 8.9
2016-Jan-30 16:33N 38°28' E 014°58'1 0.1
2016-Jan-30 08:29N 38°28' E 014°58'3 3.3
2016-Jan-30 07:32N 38°25' E 014°58'1413.7
2016-Jan-30 06:33N 38°18' E 015°13'5 5.3
2016-Jan-30 05:33N 38°13' E 015°15'0 0.0
2016-Jan-30 04:33N 38°13' E 015°15'0 0.0
2016-Jan-30 03:33N 38°13' E 015°15'0 0.0
2016-Jan-30 02:33N 38°13' E 015°15'0 0.0
2016-Jan-30 01:33N 38°13' E 015°15'0 0.0
2016-Jan-30 00:33N 38°13' E 015°15'0 0.0
2016-Jan-29 23:33N 38°13' E 015°15'0 0.0
2016-Jan-29 22:33N 38°13' E 015°15'0 0.0
2016-Jan-29 21:33N 38°13' E 015°15'0 0.0
2016-Jan-29 20:33N 38°13' E 015°15'0 0.0
2016-Jan-29 19:33N 38°13' E 015°15'0 0.1
2016-Jan-29 18:33N 38°13' E 015°15'1010.4
2016-Jan-29 17:33N 38°21' E 015°07'10 9.4
2016-Jan-29 16:31N 38°28' E 014°58'0 0.1
2016-Jan-29 08:07N 38°28' E 014°58'3 4.6
2016-Jan-29 07:33N 38°25' E 014°59'1413.6
2016-Jan-29 06:33N 38°18' E 015°13'5 5.0
2016-Jan-29 05:33N 38°13' E 015°15'0 0.0
2016-Jan-29 04:33N 38°13' E 015°15'0 0.0
2016-Jan-29 03:33N 38°13' E 015°15'0 0.0
2016-Jan-29 02:33N 38°13' E 015°15'0 0.0
2016-Jan-29 01:33N 38°13' E 015°15'0 0.0
2016-Jan-29 00:33N 38°13' E 015°15'0 0.0
2016-Jan-28 23:33N 38°13' E 015°15'0 0.0
2016-Jan-28 22:33N 38°13' E 015°15'0 0.0
2016-Jan-28 21:33N 38°13' E 015°15'0 0.0
2016-Jan-28 20:33N 38°13' E 015°15'0 0.0
2016-Jan-28 19:33N 38°13' E 015°15'0 0.3
2016-Jan-28 18:33N 38°13' E 015°15'1211.8
2016-Jan-28 17:33N 38°22' E 015°05'9 7.2
2016-Jan-28 16:21N 38°28' E 014°57'0 0.0
2016-Jan-28 08:29N 38°28' E 014°58'4 3.6
2016-Jan-28 07:28N 38°25' E 014°59'1314.2
2016-Jan-28 06:33N 38°18' E 015°14'5 5.1
2016-Jan-28 05:33N 38°13' E 015°15'0 0.0
2016-Jan-28 04:33N 38°13' E 015°15'0 0.0
2016-Jan-28 03:33N 38°13' E 015°15'0 0.0
2016-Jan-28 02:33N 38°13' E 015°15'0 0.0
2016-Jan-28 01:33N 38°13' E 015°15'0 0.0
2016-Jan-28 00:33N 38°13' E 015°15'0 0.0
2016-Jan-27 23:33N 38°13' E 015°15'0 0.0
2016-Jan-27 22:33N 38°13' E 015°15'  
Track history (hours):
 
Tides and Currents Weather Stations Pressure Air Temp Water Temp Dewpoint Dewpoint Depression Visibility Wind Speed Wind Dir Waves Ship Positions

Pietro Novelli

Last reported at 2016-Feb-06 22:32 UTC. Time now 2016-Feb-06 23:28 UTC.
Position N 38°13' E 015°15'.

Length 91 m; draft 3.7 m.

Type: Ship. MMSI: 247000300.

Date/timePositionNaut miles runAvg speedWind from/ knotsBaromVisibWave heightAir tempDewpointWater temp
2016-Feb-06 22:32N 38°13' E 015°15'0 0.0
2016-Feb-06 21:33N 38°13' E 015°15'0 0.0
2016-Feb-06 20:33N 38°13' E 015°15'0 0.0
2016-Feb-06 19:33N 38°13' E 015°15'1 1.2
2016-Feb-06 18:33N 38°14' E 015°16'21 8.9
2016-Feb-06 16:14N 38°28' E 014°57'0 0.0
2016-Feb-06 08:33N 38°28' E 014°58'4 3.7
2016-Feb-06 07:31N 38°25' E 014°60'1313.3
2016-Feb-06 06:32N 38°18' E 015°14'5 4.9
2016-Feb-06 05:33N 38°13' E 015°15'0 0.0
2016-Feb-06 04:33N 38°13' E 015°15'0 0.0
2016-Feb-06 03:33N 38°13' E 015°15'0 0.0
2016-Feb-06 02:32N 38°13' E 015°15'0 0.0
2016-Feb-06 01:33N 38°13' E 015°15'0 0.0
2016-Feb-06 00:33N 38°13' E 015°15'0 0.0
2016-Feb-05 23:33N 38°13' E 015°15'0 0.0
2016-Feb-05 22:33N 38°13' E 015°15'0 0.0
2016-Feb-05 21:33N 38°13' E 015°15'0 0.0
2016-Feb-05 20:33N 38°13' E 015°15'4 3.6
2016-Feb-05 19:33N 38°17' E 015°15'1313.1
2016-Feb-05 18:32N 38°24' E 015°01'5 4.9
2016-Feb-05 17:33N 38°28' E 014°57'11 5.3
2016-Feb-05 15:26N 38°38' E 015°05'5 4.9
2016-Feb-05 14:26N 38°42' E 015°07'16 3.2
2016-Feb-05 09:24N 38°28' E 014°57'3 2.6
2016-Feb-05 08:09N 38°25' E 014°58'711.7
2016-Feb-05 07:32N 38°22' E 015°06'1111.4
2016-Feb-05 06:33N 38°14' E 015°17'2 0.1
2016-Feb-04 13:24N 38°13' E 015°15'0 0.0
2016-Feb-04 12:12N 38°13' E 015°15'0 0.0
2016-Feb-04 11:30N 38°13' E 015°15'0 0.0
2016-Feb-04 10:30N 38°13' E 015°15'0 0.0
2016-Feb-04 09:18N 38°13' E 015°15'0 0.0
2016-Feb-04 08:30N 38°13' E 015°15'0 0.0
2016-Feb-04 07:30N 38°13' E 015°15'0 0.0
2016-Feb-04 06:30N 38°13' E 015°15'12 0.9
2016-Feb-03 17:32N 38°22' E 015°05'8 8.2
2016-Feb-03 16:33N 38°28' E 014°58'6 0.6
2016-Feb-03 07:24N 38°24' E 015°02'1213.9
2016-Feb-03 06:33N 38°17' E 015°14'5 0.4
2016-Feb-02 19:33N 38°13' E 015°15'0 0.4
2016-Feb-02 18:34N 38°13' E 015°15'1211.9
2016-Feb-02 17:33N 38°22' E 015°05'9 1.0
2016-Feb-02 08:33N 38°28' E 014°57'4 3.8
2016-Feb-02 07:31N 38°25' E 014°60'1313.9
2016-Feb-02 06:33N 38°17' E 015°14'4 4.3
2016-Feb-02 05:33N 38°13' E 015°15'0 0.0
2016-Feb-02 04:33N 38°13' E 015°15'0 0.0
2016-Feb-02 03:33N 38°13' E 015°14'0 0.0
2016-Feb-02 02:33N 38°13' E 015°15'0 0.0
2016-Feb-02 01:33N 38°13' E 015°15'0 0.0
2016-Feb-02 00:33N 38°13' E 015°15'0 0.0
2016-Feb-01 23:33N 38°13' E 015°15'0 0.0
2016-Feb-01 22:33N 38°13' E 015°15'0 0.0
2016-Feb-01 21:33N 38°13' E 015°15'0 0.0
2016-Feb-01 20:30N 38°13' E 015°15'0 0.0
2016-Feb-01 19:33N 38°13' E 015°15'0 0.2
2016-Feb-01 18:33N 38°13' E 015°15'1111.1
2016-Feb-01 17:33N 38°22' E 015°06'7 0.7
2016-Feb-01 07:33N 38°25' E 014°58'1414.0
2016-Feb-01 06:33N 38°18' E 015°14'5 4.8
2016-Feb-01 05:33N 38°13' E 015°15'0 0.0
2016-Feb-01 04:32N 38°13' E 015°15'0 0.0
2016-Feb-01 03:33N 38°13' E 015°15'0 0.0
2016-Feb-01 02:33N 38°13' E 015°14'0 0.0
2016-Feb-01 01:33N 38°13' E 015°15'0 0.0
2016-Feb-01 00:33N 38°13' E 015°15'0 0.0
2016-Jan-31 23:33N 38°13' E 015°15'0 0.0
2016-Jan-31 22:32N 38°13' E 015°15'0 0.0
2016-Jan-31 21:33N 38°13' E 015°15'0 0.0
2016-Jan-31 20:33N 38°13' E 015°15'0 0.0
2016-Jan-31 19:32N 38°13' E 015°15'0 0.0
2016-Jan-31 18:33N 38°13' E 015°15'0 0.0
2016-Jan-31 17:33N 38°13' E 015°15'0 0.0
2016-Jan-31 16:33N 38°13' E 015°15'0 0.0
2016-Jan-31 15:33N 38°13' E 015°15'0 0.0
2016-Jan-31 14:33N 38°13' E 015°15'0 0.0
2016-Jan-31 13:33N 38°13' E 015°15'0 0.0
2016-Jan-31 12:33N 38°13' E 015°15'0 0.0
2016-Jan-31 11:33N 38°13' E 015°15'0 0.0
2016-Jan-31 10:33N 38°13' E 015°15'0 0.0
2016-Jan-31 09:33N 38°13' E 015°15'0 0.0
2016-Jan-31 08:33N 38°13' E 015°15'0 0.0
2016-Jan-31 07:33N 38°13' E 015°15'0 0.0
2016-Jan-31 06:33N 38°13' E 015°15'0 0.0
2016-Jan-31 05:33N 38°13' E 015°15'0 0.0
2016-Jan-31 04:33N 38°13' E 015°15'0 0.0
2016-Jan-31 03:33N 38°13' E 015°15'0 0.0
2016-Jan-31 02:33N 38°13' E 015°15'0 0.0
2016-Jan-31 01:33N 38°13' E 015°15'0 0.0
2016-Jan-31 00:32N 38°13' E 015°15'0 0.0
2016-Jan-30 23:32N 38°13' E 015°15'0 0.0
2016-Jan-30 22:33N 38°13' E 015°15'0 0.0
2016-Jan-30 21:33N 38°13' E 015°15'0 0.0
2016-Jan-30 20:33N 38°13' E 015°15'0 0.0
2016-Jan-30 19:33N 38°13' E 015°15'0 0.1
2016-Jan-30 18:33N 38°13' E 015°15'1111.0
2016-Jan-30 17:34N 38°22' E 015°06'9 8.9
2016-Jan-30 16:33N 38°28' E 014°58'1 0.1
2016-Jan-30 08:29N 38°28' E 014°58'3 3.3
2016-Jan-30 07:32N 38°25' E 014°58'1413.7
2016-Jan-30 06:33N 38°18' E 015°13'5 5.3
2016-Jan-30 05:33N 38°13' E 015°15'0 0.0
2016-Jan-30 04:33N 38°13' E 015°15'0 0.0
2016-Jan-30 03:33N 38°13' E 015°15'0 0.0
2016-Jan-30 02:33N 38°13' E 015°15'0 0.0
2016-Jan-30 01:33N 38°13' E 015°15'0 0.0
2016-Jan-30 00:33N 38°13' E 015°15'0 0.0
2016-Jan-29 23:33N 38°13' E 015°15'0 0.0
2016-Jan-29 22:33N 38°13' E 015°15'0 0.0
2016-Jan-29 21:33N 38°13' E 015°15'0 0.0
2016-Jan-29 20:33N 38°13' E 015°15'0 0.0
2016-Jan-29 19:33N 38°13' E 015°15'0 0.1
2016-Jan-29 18:33N 38°13' E 015°15'1010.4
2016-Jan-29 17:33N 38°21' E 015°07'10 9.4
2016-Jan-29 16:31N 38°28' E 014°58'0 0.1
2016-Jan-29 08:07N 38°28' E 014°58'3 4.6
2016-Jan-29 07:33N 38°25' E 014°59'1413.6
2016-Jan-29 06:33N 38°18' E 015°13'5 5.0
2016-Jan-29 05:33N 38°13' E 015°15'0 0.0
2016-Jan-29 04:33N 38°13' E 015°15'0 0.0
2016-Jan-29 03:33N 38°13' E 015°15'0 0.0
2016-Jan-29 02:33N 38°13' E 015°15'0 0.0
2016-Jan-29 01:33N 38°13' E 015°15'0 0.0
2016-Jan-29 00:33N 38°13' E 015°15'0 0.0
2016-Jan-28 23:33N 38°13' E 015°15'0 0.0
2016-Jan-28 22:33N 38°13' E 015°15'0 0.0
2016-Jan-28 21:33N 38°13' E 015°15'0 0.0
2016-Jan-28 20:33N 38°13' E 015°15'0 0.0
2016-Jan-28 19:33N 38°13' E 015°15'0 0.3
2016-Jan-28 18:33N 38°13' E 015°15'1211.8
2016-Jan-28 17:33N 38°22' E 015°05'9 7.2
2016-Jan-28 16:21N 38°28' E 014°57'0 0.0
2016-Jan-28 08:29N 38°28' E 014°58'4 3.6
2016-Jan-28 07:28N 38°25' E 014°59'1314.2
2016-Jan-28 06:33N 38°18' E 015°14'5 5.1
2016-Jan-28 05:33N 38°13' E 015°15'0 0.0
2016-Jan-28 04:33N 38°13' E 015°15'0 0.0
2016-Jan-28 03:33N 38°13' E 015°15'0 0.0
2016-Jan-28 02:33N 38°13' E 015°15'0 0.0
2016-Jan-28 01:33N 38°13' E 015°15'0 0.0
2016-Jan-28 00:33N 38°13' E 015°15'0 0.0
2016-Jan-27 23:33N 38°13' E 015°15'0 0.0
2016-Jan-27 22:33N 38°13' E 015°15'  

Dump ship's entire track history